sensor_id;sensor_type;location;lat;lon;timestamp;temperature;humidity
68439;SHT31;55421;51.600;5.718;2022-07-21T00:01:56;22.74;71.43
68439;SHT31;55421;51.600;5.718;2022-07-21T00:04:23;22.68;71.48
68439;SHT31;55421;51.600;5.718;2022-07-21T00:06:49;22.64;71.52
68439;SHT31;55421;51.600;5.718;2022-07-21T00:09:16;22.60;71.37
68439;SHT31;55421;51.600;5.718;2022-07-21T00:11:43;22.55;71.57
68439;SHT31;55421;51.600;5.718;2022-07-21T00:14:10;22.54;71.52
68439;SHT31;55421;51.600;5.718;2022-07-21T00:16:38;22.55;71.37
68439;SHT31;55421;51.600;5.718;2022-07-21T00:19:06;22.54;71.46
68439;SHT31;55421;51.600;5.718;2022-07-21T00:21:36;22.53;71.33
68439;SHT31;55421;51.600;5.718;2022-07-21T00:24:03;22.49;71.35
68439;SHT31;55421;51.600;5.718;2022-07-21T00:26:30;22.45;71.62
68439;SHT31;55421;51.600;5.718;2022-07-21T00:28:56;22.44;71.70
68439;SHT31;55421;51.600;5.718;2022-07-21T00:31:23;22.41;71.80
68439;SHT31;55421;51.600;5.718;2022-07-21T00:33:49;22.35;71.46
68439;SHT31;55421;51.600;5.718;2022-07-21T00:36:17;22.28;71.74
68439;SHT31;55421;51.600;5.718;2022-07-21T00:38:45;22.25;71.97
68439;SHT31;55421;51.600;5.718;2022-07-21T00:41:11;22.25;71.97
68439;SHT31;55421;51.600;5.718;2022-07-21T00:43:38;22.27;71.95
68439;SHT31;55421;51.600;5.718;2022-07-21T00:46:05;22.25;71.97
68439;SHT31;55421;51.600;5.718;2022-07-21T00:48:31;22.23;72.04
68439;SHT31;55421;51.600;5.718;2022-07-21T00:50:58;22.20;71.83
68439;SHT31;55421;51.600;5.718;2022-07-21T00:53:24;22.10;71.93
68439;SHT31;55421;51.600;5.718;2022-07-21T00:55:51;22.07;72.26
68439;SHT31;55421;51.600;5.718;2022-07-21T00:58:17;22.07;72.27
68439;SHT31;55421;51.600;5.718;2022-07-21T01:00:45;22.07;72.28
68439;SHT31;55421;51.600;5.718;2022-07-21T01:03:11;22.07;72.36
68439;SHT31;55421;51.600;5.718;2022-07-21T01:05:38;22.08;72.35
68439;SHT31;55421;51.600;5.718;2022-07-21T01:08:04;22.06;72.16
68439;SHT31;55421;51.600;5.718;2022-07-21T01:10:32;22.01;72.27
68439;SHT31;55421;51.600;5.718;2022-07-21T01:12:59;21.99;72.33
68439;SHT31;55421;51.600;5.718;2022-07-21T01:15:26;21.95;72.54
68439;SHT31;55421;51.600;5.718;2022-07-21T01:17:54;21.93;72.58
68439;SHT31;55421;51.600;5.718;2022-07-21T01:20:21;21.92;72.60
68439;SHT31;55421;51.600;5.718;2022-07-21T01:22:53;21.92;72.68
68439;SHT31;55421;51.600;5.718;2022-07-21T01:25:24;21.88;72.61
68439;SHT31;55421;51.600;5.718;2022-07-21T01:27:50;21.88;72.66
68439;SHT31;55421;51.600;5.718;2022-07-21T01:30:17;21.86;72.80
68439;SHT31;55421;51.600;5.718;2022-07-21T01:32:44;21.82;72.83
68439;SHT31;55421;51.600;5.718;2022-07-21T01:35:12;21.80;72.98
68439;SHT31;55421;51.600;5.718;2022-07-21T01:37:42;21.79;73.00
68439;SHT31;55421;51.600;5.718;2022-07-21T01:40:12;21.78;72.91
68439;SHT31;55421;51.600;5.718;2022-07-21T01:43:02;21.74;73.01
68439;SHT31;55421;51.600;5.718;2022-07-21T01:45:30;21.71;73.07
68439;SHT31;55421;51.600;5.718;2022-07-21T01:47:57;21.70;73.07
68439;SHT31;55421;51.600;5.718;2022-07-21T01:50:23;21.63;73.10
68439;SHT31;55421;51.600;5.718;2022-07-21T01:52:55;21.53;73.25
68439;SHT31;55421;51.600;5.718;2022-07-21T01:55:23;21.45;73.47
68439;SHT31;55421;51.600;5.718;2022-07-21T01:57:51;21.38;73.57
68439;SHT31;55421;51.600;5.718;2022-07-21T02:00:18;21.37;73.80
68439;SHT31;55421;51.600;5.718;2022-07-21T02:02:45;21.36;73.89
68439;SHT31;55421;51.600;5.718;2022-07-21T02:05:12;21.32;74.04
68439;SHT31;55421;51.600;5.718;2022-07-21T02:07:38;21.31;74.24
68439;SHT31;55421;51.600;5.718;2022-07-21T02:10:05;21.31;74.23
68439;SHT31;55421;51.600;5.718;2022-07-21T02:12:32;21.30;74.27
68439;SHT31;55421;51.600;5.718;2022-07-21T02:14:58;21.27;74.19
68439;SHT31;55421;51.600;5.718;2022-07-21T02:17:24;21.23;74.30
68439;SHT31;55421;51.600;5.718;2022-07-21T02:19:53;21.23;74.45
68439;SHT31;55421;51.600;5.718;2022-07-21T02:22:19;21.27;74.58
68439;SHT31;55421;51.600;5.718;2022-07-21T02:24:45;21.33;74.54
68439;SHT31;55421;51.600;5.718;2022-07-21T02:27:12;21.35;74.49
68439;SHT31;55421;51.600;5.718;2022-07-21T02:29:38;21.36;74.50
68439;SHT31;55421;51.600;5.718;2022-07-21T02:32:05;21.38;74.58
68439;SHT31;55421;51.600;5.718;2022-07-21T02:34:32;21.41;74.49
68439;SHT31;55421;51.600;5.718;2022-07-21T02:36:58;21.45;74.49
68439;SHT31;55421;51.600;5.718;2022-07-21T02:39:24;21.50;74.46
68439;SHT31;55421;51.600;5.718;2022-07-21T02:41:52;21.51;74.38
68439;SHT31;55421;51.600;5.718;2022-07-21T02:44:18;21.51;74.24
68439;SHT31;55421;51.600;5.718;2022-07-21T02:46:45;21.46;74.35
68439;SHT31;55421;51.600;5.718;2022-07-21T02:49:11;21.44;74.51
68439;SHT31;55421;51.600;5.718;2022-07-21T02:51:38;21.44;74.55
68439;SHT31;55421;51.600;5.718;2022-07-21T02:54:04;21.46;74.52
68439;SHT31;55421;51.600;5.718;2022-07-21T02:56:30;21.46;74.45
68439;SHT31;55421;51.600;5.718;2022-07-21T02:58:57;21.43;74.40
68439;SHT31;55421;51.600;5.718;2022-07-21T03:01:23;21.38;74.50
68439;SHT31;55421;51.600;5.718;2022-07-21T03:03:50;21.33;74.59
68439;SHT31;55421;51.600;5.718;2022-07-21T03:06:16;21.33;74.70
68439;SHT31;55421;51.600;5.718;2022-07-21T03:08:43;21.33;74.60
68439;SHT31;55421;51.600;5.718;2022-07-21T03:11:09;21.35;74.67
68439;SHT31;55421;51.600;5.718;2022-07-21T03:13:35;21.38;74.69
68439;SHT31;55421;51.600;5.718;2022-07-21T03:16:02;21.40;74.72
68439;SHT31;55421;51.600;5.718;2022-07-21T03:18:28;21.40;74.67
68439;SHT31;55421;51.600;5.718;2022-07-21T03:20:56;21.39;74.56
68439;SHT31;55421;51.600;5.718;2022-07-21T03:23:24;21.36;74.66
68439;SHT31;55421;51.600;5.718;2022-07-21T03:25:50;21.33;74.63
68439;SHT31;55421;51.600;5.718;2022-07-21T03:28:16;21.30;74.68
68439;SHT31;55421;51.600;5.718;2022-07-21T03:30:45;21.31;74.71
68439;SHT31;55421;51.600;5.718;2022-07-21T03:33:11;21.32;74.70
68439;SHT31;55421;51.600;5.718;2022-07-21T03:35:38;21.34;74.82
68439;SHT31;55421;51.600;5.718;2022-07-21T03:38:04;21.35;74.80
68439;SHT31;55421;51.600;5.718;2022-07-21T03:40:32;21.32;74.70
68439;SHT31;55421;51.600;5.718;2022-07-21T03:43:03;21.30;74.84
68439;SHT31;55421;51.600;5.718;2022-07-21T03:45:31;21.32;74.89
68439;SHT31;55421;51.600;5.718;2022-07-21T03:48:00;21.37;74.90
68439;SHT31;55421;51.600;5.718;2022-07-21T03:50:29;21.42;74.87
68439;SHT31;55421;51.600;5.718;2022-07-21T03:52:57;21.44;74.85
68439;SHT31;55421;51.600;5.718;2022-07-21T03:55:25;21.42;74.84
68439;SHT31;55421;51.600;5.718;2022-07-21T03:57:55;21.38;74.89
68439;SHT31;55421;51.600;5.718;2022-07-21T04:00:31;21.33;75.07
68439;SHT31;55421;51.600;5.718;2022-07-21T04:03:06;21.31;75.12
68439;SHT31;55421;51.600;5.718;2022-07-21T04:05:34;21.31;75.09
68439;SHT31;55421;51.600;5.718;2022-07-21T04:08:02;21.30;74.99
68439;SHT31;55421;51.600;5.718;2022-07-21T04:10:30;21.27;75.11
68439;SHT31;55421;51.600;5.718;2022-07-21T04:13:01;21.27;75.22
68439;SHT31;55421;51.600;5.718;2022-07-21T04:15:30;21.24;75.24
68439;SHT31;55421;51.600;5.718;2022-07-21T04:17:58;21.23;75.33
68439;SHT31;55421;51.600;5.718;2022-07-21T04:20:24;21.21;75.38
68439;SHT31;55421;51.600;5.718;2022-07-21T04:22:52;21.22;75.34
68439;SHT31;55421;51.600;5.718;2022-07-21T04:25:19;21.22;75.35
68439;SHT31;55421;51.600;5.718;2022-07-21T04:27:47;21.22;75.43
68439;SHT31;55421;51.600;5.718;2022-07-21T04:30:18;21.23;75.51
68439;SHT31;55421;51.600;5.718;2022-07-21T04:32:48;21.22;75.49
68439;SHT31;55421;51.600;5.718;2022-07-21T04:35:15;21.21;75.48
68439;SHT31;55421;51.600;5.718;2022-07-21T04:37:42;21.21;75.54
68439;SHT31;55421;51.600;5.718;2022-07-21T04:40:09;21.20;75.60
68439;SHT31;55421;51.600;5.718;2022-07-21T04:42:38;21.20;75.66
68439;SHT31;55421;51.600;5.718;2022-07-21T04:45:06;21.22;75.73
68439;SHT31;55421;51.600;5.718;2022-07-21T04:47:41;21.22;75.74
68439;SHT31;55421;51.600;5.718;2022-07-21T04:50:09;21.23;75.68
68439;SHT31;55421;51.600;5.718;2022-07-21T04:52:36;21.23;75.82
68439;SHT31;55421;51.600;5.718;2022-07-21T04:55:03;21.26;75.69
68439;SHT31;55421;51.600;5.718;2022-07-21T04:57:30;21.24;75.48
68439;SHT31;55421;51.600;5.718;2022-07-21T04:59:57;21.25;75.51
68439;SHT31;55421;51.600;5.718;2022-07-21T05:02:23;21.24;75.56
68439;SHT31;55421;51.600;5.718;2022-07-21T05:04:49;21.24;75.60
68439;SHT31;55421;51.600;5.718;2022-07-21T05:07:16;21.24;75.60
68439;SHT31;55421;51.600;5.718;2022-07-21T05:09:42;21.22;75.60
68439;SHT31;55421;51.600;5.718;2022-07-21T05:12:08;21.21;75.60
68439;SHT31;55421;51.600;5.718;2022-07-21T05:14:35;21.22;75.60
68439;SHT31;55421;51.600;5.718;2022-07-21T05:17:01;21.24;75.60
68439;SHT31;55421;51.600;5.718;2022-07-21T05:19:28;21.28;75.56
68439;SHT31;55421;51.600;5.718;2022-07-21T05:21:54;21.30;75.51
68439;SHT31;55421;51.600;5.718;2022-07-21T05:24:21;21.32;75.61
68439;SHT31;55421;51.600;5.718;2022-07-21T05:26:47;21.33;75.52
68439;SHT31;55421;51.600;5.718;2022-07-21T05:29:14;21.33;75.44
68439;SHT31;55421;51.600;5.718;2022-07-21T05:31:40;21.31;75.30
68439;SHT31;55421;51.600;5.718;2022-07-21T05:34:07;21.30;75.23
68439;SHT31;55421;51.600;5.718;2022-07-21T05:36:33;21.32;75.18
68439;SHT31;55421;51.600;5.718;2022-07-21T05:39:00;21.38;75.20
68439;SHT31;55421;51.600;5.718;2022-07-21T05:41:26;21.45;75.11
68439;SHT31;55421;51.600;5.718;2022-07-21T05:43:52;21.50;75.10
68439;SHT31;55421;51.600;5.718;2022-07-21T05:46:19;21.56;74.97
68439;SHT31;55421;51.600;5.718;2022-07-21T05:48:45;21.63;74.91
68439;SHT31;55421;51.600;5.718;2022-07-21T05:51:12;21.68;74.88
68439;SHT31;55421;51.600;5.718;2022-07-21T05:53:38;21.74;74.88
68439;SHT31;55421;51.600;5.718;2022-07-21T05:56:05;21.82;74.71
68439;SHT31;55421;51.600;5.718;2022-07-21T05:58:33;21.83;74.39
68439;SHT31;55421;51.600;5.718;2022-07-21T06:01:00;21.83;74.38
68439;SHT31;55421;51.600;5.718;2022-07-21T06:03:41;21.78;74.24
68439;SHT31;55421;51.600;5.718;2022-07-21T06:06:15;21.73;74.26
68439;SHT31;55421;51.600;5.718;2022-07-21T06:08:45;21.66;74.16
68439;SHT31;55421;51.600;5.718;2022-07-21T06:11:15;21.60;74.18
68439;SHT31;55421;51.600;5.718;2022-07-21T06:13:44;21.55;74.11
68439;SHT31;55421;51.600;5.718;2022-07-21T06:16:11;21.50;74.21
68439;SHT31;55421;51.600;5.718;2022-07-21T06:18:38;21.47;74.22
68439;SHT31;55421;51.600;5.718;2022-07-21T06:21:05;21.42;74.17
68439;SHT31;55421;51.600;5.718;2022-07-21T06:23:32;21.40;74.07
68439;SHT31;55421;51.600;5.718;2022-07-21T06:25:58;21.35;74.14
68439;SHT31;55421;51.600;5.718;2022-07-21T06:28:25;21.33;74.19
68439;SHT31;55421;51.600;5.718;2022-07-21T06:30:51;21.34;74.24
68439;SHT31;55421;51.600;5.718;2022-07-21T06:33:18;21.34;74.29
68439;SHT31;55421;51.600;5.718;2022-07-21T06:35:45;21.32;74.26
68439;SHT31;55421;51.600;5.718;2022-07-21T06:38:11;21.30;74.28
68439;SHT31;55421;51.600;5.718;2022-07-21T06:40:37;21.30;74.41
68439;SHT31;55421;51.600;5.718;2022-07-21T06:43:04;21.32;74.33
68439;SHT31;55421;51.600;5.718;2022-07-21T06:45:33;21.36;74.29
68439;SHT31;55421;51.600;5.718;2022-07-21T06:48:01;21.42;74.30
68439;SHT31;55421;51.600;5.718;2022-07-21T06:50:32;21.46;74.23
68439;SHT31;55421;51.600;5.718;2022-07-21T06:52:59;21.47;74.10
68439;SHT31;55421;51.600;5.718;2022-07-21T06:55:26;21.48;74.00
68439;SHT31;55421;51.600;5.718;2022-07-21T06:57:53;21.50;73.96
68439;SHT31;55421;51.600;5.718;2022-07-21T07:00:20;21.54;73.93
68439;SHT31;55421;51.600;5.718;2022-07-21T07:02:47;21.61;73.92
68439;SHT31;55421;51.600;5.718;2022-07-21T07:05:13;21.69;73.93
68439;SHT31;55421;51.600;5.718;2022-07-21T07:07:40;21.75;73.79
68439;SHT31;55421;51.600;5.718;2022-07-21T07:10:07;21.79;73.76
68439;SHT31;55421;51.600;5.718;2022-07-21T07:12:34;21.82;73.77
68439;SHT31;55421;51.600;5.718;2022-07-21T07:15:02;21.88;73.67
68439;SHT31;55421;51.600;5.718;2022-07-21T07:17:29;21.95;73.39
68439;SHT31;55421;51.600;5.718;2022-07-21T07:19:55;22.07;73.25
68439;SHT31;55421;51.600;5.718;2022-07-21T07:22:22;22.18;73.03
68439;SHT31;55421;51.600;5.718;2022-07-21T07:24:48;22.25;73.07
68439;SHT31;55421;51.600;5.718;2022-07-21T07:27:15;22.33;72.85
68439;SHT31;55421;51.600;5.718;2022-07-21T07:29:41;22.40;72.52
68439;SHT31;55421;51.600;5.718;2022-07-21T07:32:08;22.43;72.22
68439;SHT31;55421;51.600;5.718;2022-07-21T07:34:34;22.38;71.98
68439;SHT31;55421;51.600;5.718;2022-07-21T07:37:00;22.32;72.03
68439;SHT31;55421;51.600;5.718;2022-07-21T07:39:27;22.30;72.00
68439;SHT31;55421;51.600;5.718;2022-07-21T07:41:54;22.26;71.73
68439;SHT31;55421;51.600;5.718;2022-07-21T07:44:21;22.20;71.81
68439;SHT31;55421;51.600;5.718;2022-07-21T07:46:48;22.12;71.93
68439;SHT31;55421;51.600;5.718;2022-07-21T07:49:16;22.08;72.08
68439;SHT31;55421;51.600;5.718;2022-07-21T07:51:43;22.03;72.17
68439;SHT31;55421;51.600;5.718;2022-07-21T07:54:09;22.00;72.33
68439;SHT31;55421;51.600;5.718;2022-07-21T07:56:35;21.99;72.37
68439;SHT31;55421;51.600;5.718;2022-07-21T07:59:02;22.02;72.37
68439;SHT31;55421;51.600;5.718;2022-07-21T08:01:28;22.12;72.44
68439;SHT31;55421;51.600;5.718;2022-07-21T08:03:55;22.24;72.53
68439;SHT31;55421;51.600;5.718;2022-07-21T08:06:22;22.30;72.48
68439;SHT31;55421;51.600;5.718;2022-07-21T08:08:48;22.33;72.15
68439;SHT31;55421;51.600;5.718;2022-07-21T08:11:15;22.36;71.99
68439;SHT31;55421;51.600;5.718;2022-07-21T08:13:41;22.37;71.83
68439;SHT31;55421;51.600;5.718;2022-07-21T08:16:08;22.41;71.92
68439;SHT31;55421;51.600;5.718;2022-07-21T08:18:34;22.49;71.96
68439;SHT31;55421;51.600;5.718;2022-07-21T08:21:01;22.58;71.77
68439;SHT31;55421;51.600;5.718;2022-07-21T08:23:27;22.62;71.60
68439;SHT31;55421;51.600;5.718;2022-07-21T08:25:54;22.61;71.68
68439;SHT31;55421;51.600;5.718;2022-07-21T08:28:20;22.55;71.50
68439;SHT31;55421;51.600;5.718;2022-07-21T08:30:47;22.43;71.51
68439;SHT31;55421;51.600;5.718;2022-07-21T08:33:13;22.33;71.66
68439;SHT31;55421;51.600;5.718;2022-07-21T08:35:40;22.26;71.56
68439;SHT31;55421;51.600;5.718;2022-07-21T08:38:07;22.20;71.70
68439;SHT31;55421;51.600;5.718;2022-07-21T08:40:38;22.14;71.79
68439;SHT31;55421;51.600;5.718;2022-07-21T08:43:06;22.08;72.16
68439;SHT31;55421;51.600;5.718;2022-07-21T08:45:35;21.98;72.73
68439;SHT31;55421;51.600;5.718;2022-07-21T08:48:03;21.91;73.29
68439;SHT31;55421;51.600;5.718;2022-07-21T08:50:32;21.88;73.73
68439;SHT31;55421;51.600;5.718;2022-07-21T08:53:03;21.83;74.05
68439;SHT31;55421;51.600;5.718;2022-07-21T08:55:34;21.79;74.37
68439;SHT31;55421;51.600;5.718;2022-07-21T08:58:07;21.71;74.70
68439;SHT31;55421;51.600;5.718;2022-07-21T09:00:36;21.68;74.89
68439;SHT31;55421;51.600;5.718;2022-07-21T09:08:43;21.55;75.42
68439;SHT31;55421;51.600;5.718;2022-07-21T09:14:07;21.40;75.87
68439;SHT31;55421;51.600;5.718;2022-07-21T09:16:40;21.35;76.15
68439;SHT31;55421;51.600;5.718;2022-07-21T09:19:23;21.32;76.34
68439;SHT31;55421;51.600;5.718;2022-07-21T09:21:54;21.29;76.61
68439;SHT31;55421;51.600;5.718;2022-07-21T09:24:24;21.27;76.67
68439;SHT31;55421;51.600;5.718;2022-07-21T09:27:00;21.23;76.77
68439;SHT31;55421;51.600;5.718;2022-07-21T09:29:48;21.20;76.95
68439;SHT31;55421;51.600;5.718;2022-07-21T09:32:36;21.15;77.16
68439;SHT31;55421;51.600;5.718;2022-07-21T09:35:05;21.10;77.22
68439;SHT31;55421;51.600;5.718;2022-07-21T09:37:41;21.08;77.37
68439;SHT31;55421;51.600;5.718;2022-07-21T09:40:09;21.08;77.57
68439;SHT31;55421;51.600;5.718;2022-07-21T09:42:40;21.13;77.70
68439;SHT31;55421;51.600;5.718;2022-07-21T09:45:14;21.18;77.73
68439;SHT31;55421;51.600;5.718;2022-07-21T09:47:43;21.22;77.76
68439;SHT31;55421;51.600;5.718;2022-07-21T09:50:12;21.23;77.72
68439;SHT31;55421;51.600;5.718;2022-07-21T09:52:43;21.22;77.79
68439;SHT31;55421;51.600;5.718;2022-07-21T09:55:13;21.25;77.82
68439;SHT31;55421;51.600;5.718;2022-07-21T09:57:43;21.26;77.82
68439;SHT31;55421;51.600;5.718;2022-07-21T10:00:11;21.27;77.90
68439;SHT31;55421;51.600;5.718;2022-07-21T10:02:42;21.29;77.96
68439;SHT31;55421;51.600;5.718;2022-07-21T10:07:44;21.31;77.74
68439;SHT31;55421;51.600;5.718;2022-07-21T10:10:13;21.32;77.76
68439;SHT31;55421;51.600;5.718;2022-07-21T10:12:41;21.33;77.82
68439;SHT31;55421;51.600;5.718;2022-07-21T10:15:08;21.33;77.72
68439;SHT31;55421;51.600;5.718;2022-07-21T10:17:35;21.30;77.69
68439;SHT31;55421;51.600;5.718;2022-07-21T10:20:17;21.26;77.68
68439;SHT31;55421;51.600;5.718;2022-07-21T10:25:48;21.28;77.59
68439;SHT31;55421;51.600;5.718;2022-07-21T10:28:19;21.30;77.53
68439;SHT31;55421;51.600;5.718;2022-07-21T10:30:50;21.32;77.49
68439;SHT31;55421;51.600;5.718;2022-07-21T10:36:38;21.30;77.53
68439;SHT31;55421;51.600;5.718;2022-07-21T10:41:38;21.27;77.40
68439;SHT31;55421;51.600;5.718;2022-07-21T11:03:00;21.39;77.56
68439;SHT31;55421;51.600;5.718;2022-07-21T11:05:30;21.36;77.43
68439;SHT31;55421;51.600;5.718;2022-07-21T11:10:49;21.22;77.45
68439;SHT31;55421;51.600;5.718;2022-07-21T11:13:19;21.17;77.42
68439;SHT31;55421;51.600;5.718;2022-07-21T11:18:26;21.12;77.44
68439;SHT31;55421;51.600;5.718;2022-07-21T11:21:12;21.12;77.50
68439;SHT31;55421;51.600;5.718;2022-07-21T11:23:47;21.11;77.49
68439;SHT31;55421;51.600;5.718;2022-07-21T11:26:16;21.07;77.48
68439;SHT31;55421;51.600;5.718;2022-07-21T11:29:03;21.06;77.43
68439;SHT31;55421;51.600;5.718;2022-07-21T11:31:31;21.06;77.40
68439;SHT31;55421;51.600;5.718;2022-07-21T11:34:10;21.08;77.28
68439;SHT31;55421;51.600;5.718;2022-07-21T11:36:38;21.05;77.17
68439;SHT31;55421;51.600;5.718;2022-07-21T11:39:09;21.02;77.18
68439;SHT31;55421;51.600;5.718;2022-07-21T11:41:39;21.01;77.27
68439;SHT31;55421;51.600;5.718;2022-07-21T11:44:08;21.01;77.29
68439;SHT31;55421;51.600;5.718;2022-07-21T11:46:50;21.03;77.41
68439;SHT31;55421;51.600;5.718;2022-07-21T11:49:22;21.06;77.41
68439;SHT31;55421;51.600;5.718;2022-07-21T11:51:53;21.08;77.39
68439;SHT31;55421;51.600;5.718;2022-07-21T11:54:25;21.07;77.30
68439;SHT31;55421;51.600;5.718;2022-07-21T12:00:11;21.00;77.47
68439;SHT31;55421;51.600;5.718;2022-07-21T12:02:39;21.00;77.47
68439;SHT31;55421;51.600;5.718;2022-07-21T12:05:07;20.97;77.58
68439;SHT31;55421;51.600;5.718;2022-07-21T12:07:36;20.97;77.62
68439;SHT31;55421;51.600;5.718;2022-07-21T12:12:40;20.95;77.78
68439;SHT31;55421;51.600;5.718;2022-07-21T12:15:17;20.94;77.87
68439;SHT31;55421;51.600;5.718;2022-07-21T12:17:55;20.97;78.04
68439;SHT31;55421;51.600;5.718;2022-07-21T12:20:25;20.95;77.96
68439;SHT31;55421;51.600;5.718;2022-07-21T12:22:59;20.94;78.14
68439;SHT31;55421;51.600;5.718;2022-07-21T12:25:31;20.98;78.17
68439;SHT31;55421;51.600;5.718;2022-07-21T12:28:04;21.06;78.12
68439;SHT31;55421;51.600;5.718;2022-07-21T12:30:34;21.12;78.04
68439;SHT31;55421;51.600;5.718;2022-07-21T12:33:09;21.20;77.82
68439;SHT31;55421;51.600;5.718;2022-07-21T12:35:39;21.25;77.88
68439;SHT31;55421;51.600;5.718;2022-07-21T12:38:10;21.26;77.67
68439;SHT31;55421;51.600;5.718;2022-07-21T12:40:55;21.23;77.58
68439;SHT31;55421;51.600;5.718;2022-07-21T12:43:23;21.21;77.75
68439;SHT31;55421;51.600;5.718;2022-07-21T12:49:02;21.24;77.90
68439;SHT31;55421;51.600;5.718;2022-07-21T12:51:38;21.31;77.83
68439;SHT31;55421;51.600;5.718;2022-07-21T12:54:07;21.34;77.80
68439;SHT31;55421;51.600;5.718;2022-07-21T12:56:34;21.35;77.65
68439;SHT31;55421;51.600;5.718;2022-07-21T12:59:03;21.31;77.52
68439;SHT31;55421;51.600;5.718;2022-07-21T13:01:30;21.23;77.56
68439;SHT31;55421;51.600;5.718;2022-07-21T13:03:59;21.20;77.53
68439;SHT31;55421;51.600;5.718;2022-07-21T13:06:27;21.14;77.56
68439;SHT31;55421;51.600;5.718;2022-07-21T13:08:54;21.09;77.54
68439;SHT31;55421;51.600;5.718;2022-07-21T13:11:20;21.05;77.61
68439;SHT31;55421;51.600;5.718;2022-07-21T13:13:47;21.01;77.73
68439;SHT31;55421;51.600;5.718;2022-07-21T13:16:16;21.01;77.70
68439;SHT31;55421;51.600;5.718;2022-07-21T13:18:44;21.04;77.70
68439;SHT31;55421;51.600;5.718;2022-07-21T13:21:11;21.11;77.81
68439;SHT31;55421;51.600;5.718;2022-07-21T13:23:38;21.17;77.84
68439;SHT31;55421;51.600;5.718;2022-07-21T13:26:04;21.18;77.80
68439;SHT31;55421;51.600;5.718;2022-07-21T13:28:31;21.15;77.77
68439;SHT31;55421;51.600;5.718;2022-07-21T13:31:00;21.14;77.85
68439;SHT31;55421;51.600;5.718;2022-07-21T13:33:27;21.14;77.86
68439;SHT31;55421;51.600;5.718;2022-07-21T13:35:53;21.14;77.86
68439;SHT31;55421;51.600;5.718;2022-07-21T13:38:20;21.18;77.90
68439;SHT31;55421;51.600;5.718;2022-07-21T13:40:47;21.23;77.89
68439;SHT31;55421;51.600;5.718;2022-07-21T13:43:13;21.23;77.77
68439;SHT31;55421;51.600;5.718;2022-07-21T13:45:41;21.21;77.70
68439;SHT31;55421;51.600;5.718;2022-07-21T13:48:07;21.18;77.71
68439;SHT31;55421;51.600;5.718;2022-07-21T13:50:34;21.16;77.75
68439;SHT31;55421;51.600;5.718;2022-07-21T13:53:00;21.13;77.74
68439;SHT31;55421;51.600;5.718;2022-07-21T13:55:27;21.09;77.81
68439;SHT31;55421;51.600;5.718;2022-07-21T13:57:53;21.05;77.86
68439;SHT31;55421;51.600;5.718;2022-07-21T14:00:19;20.97;77.81
68439;SHT31;55421;51.600;5.718;2022-07-21T14:02:46;20.90;77.89
68439;SHT31;55421;51.600;5.718;2022-07-21T14:05:13;20.87;77.98
68439;SHT31;55421;51.600;5.718;2022-07-21T14:07:40;20.85;78.11
68439;SHT31;55421;51.600;5.718;2022-07-21T14:10:07;20.84;78.14
68439;SHT31;55421;51.600;5.718;2022-07-21T14:12:34;20.82;78.29
68439;SHT31;55421;51.600;5.718;2022-07-21T14:15:01;20.81;78.31
68439;SHT31;55421;51.600;5.718;2022-07-21T14:17:28;20.82;78.32
68439;SHT31;55421;51.600;5.718;2022-07-21T14:19:55;20.85;78.36
68439;SHT31;55421;51.600;5.718;2022-07-21T14:22:21;20.86;78.24
68439;SHT31;55421;51.600;5.718;2022-07-21T14:24:48;20.83;78.30
68439;SHT31;55421;51.600;5.718;2022-07-21T14:27:33;20.87;78.46
68439;SHT31;55421;51.600;5.718;2022-07-21T14:30:00;20.90;78.51
68439;SHT31;55421;51.600;5.718;2022-07-21T14:32:27;20.93;78.38
68439;SHT31;55421;51.600;5.718;2022-07-21T14:34:54;20.97;78.48
68439;SHT31;55421;51.600;5.718;2022-07-21T14:37:21;20.99;78.27
68439;SHT31;55421;51.600;5.718;2022-07-21T14:39:48;20.98;78.12
68439;SHT31;55421;51.600;5.718;2022-07-21T14:42:15;20.89;78.08
68439;SHT31;55421;51.600;5.718;2022-07-21T14:44:43;20.83;78.27
68439;SHT31;55421;51.600;5.718;2022-07-21T14:47:11;20.80;78.41
68439;SHT31;55421;51.600;5.718;2022-07-21T14:50:00;20.79;78.37
68439;SHT31;55421;51.600;5.718;2022-07-21T14:52:27;20.81;78.48
68439;SHT31;55421;51.600;5.718;2022-07-21T14:54:53;20.81;78.52
68439;SHT31;55421;51.600;5.718;2022-07-21T14:57:20;20.78;78.59
68439;SHT31;55421;51.600;5.718;2022-07-21T14:59:47;20.75;78.46
68439;SHT31;55421;51.600;5.718;2022-07-21T15:02:13;20.71;78.38
68439;SHT31;55421;51.600;5.718;2022-07-21T15:04:39;20.67;78.35
68439;SHT31;55421;51.600;5.718;2022-07-21T15:07:06;20.67;78.39
68439;SHT31;55421;51.600;5.718;2022-07-21T15:09:33;20.67;78.41
68439;SHT31;55421;51.600;5.718;2022-07-21T15:12:00;20.66;78.19
68439;SHT31;55421;51.600;5.718;2022-07-21T15:14:27;20.62;78.24
68439;SHT31;55421;51.600;5.718;2022-07-21T15:16:53;20.62;78.30
68439;SHT31;55421;51.600;5.718;2022-07-21T15:19:20;20.59;78.23
68439;SHT31;55421;51.600;5.718;2022-07-21T15:21:46;20.59;78.24
68439;SHT31;55421;51.600;5.718;2022-07-21T15:24:13;20.59;78.38
68439;SHT31;55421;51.600;5.718;2022-07-21T15:26:41;20.58;78.47
68439;SHT31;55421;51.600;5.718;2022-07-21T15:29:09;20.56;78.58
68439;SHT31;55421;51.600;5.718;2022-07-21T15:31:36;20.54;78.67
68439;SHT31;55421;51.600;5.718;2022-07-21T15:34:02;20.51;78.73
68439;SHT31;55421;51.600;5.718;2022-07-21T15:36:29;20.48;78.88
68439;SHT31;55421;51.600;5.718;2022-07-21T15:38:56;20.45;78.87
68439;SHT31;55421;51.600;5.718;2022-07-21T15:41:24;20.41;79.03
68439;SHT31;55421;51.600;5.718;2022-07-21T15:43:51;20.38;79.16
68439;SHT31;55421;51.600;5.718;2022-07-21T15:46:18;20.36;79.19
68439;SHT31;55421;51.600;5.718;2022-07-21T15:48:44;20.36;79.21
68439;SHT31;55421;51.600;5.718;2022-07-21T15:51:11;20.37;79.30
68439;SHT31;55421;51.600;5.718;2022-07-21T15:53:37;20.37;79.21
68439;SHT31;55421;51.600;5.718;2022-07-21T15:56:04;20.33;79.20
68439;SHT31;55421;51.600;5.718;2022-07-21T15:58:33;20.31;79.33
68439;SHT31;55421;51.600;5.718;2022-07-21T16:00:59;20.29;79.47
68439;SHT31;55421;51.600;5.718;2022-07-21T16:03:26;20.30;79.49
68439;SHT31;55421;51.600;5.718;2022-07-21T16:05:52;20.33;79.42
68439;SHT31;55421;51.600;5.718;2022-07-21T16:08:19;20.36;79.45
68439;SHT31;55421;51.600;5.718;2022-07-21T16:10:45;20.39;79.43
68439;SHT31;55421;51.600;5.718;2022-07-21T16:13:12;20.36;79.29
68439;SHT31;55421;51.600;5.718;2022-07-21T16:15:38;20.33;79.37
68439;SHT31;55421;51.600;5.718;2022-07-21T16:18:05;20.34;79.37
68439;SHT31;55421;51.600;5.718;2022-07-21T16:20:31;20.34;79.24
68439;SHT31;55421;51.600;5.718;2022-07-21T16:22:58;20.33;79.22
68439;SHT31;55421;51.600;5.718;2022-07-21T16:25:25;20.32;79.27
68439;SHT31;55421;51.600;5.718;2022-07-21T16:27:51;20.32;79.24
68439;SHT31;55421;51.600;5.718;2022-07-21T16:30:18;20.30;79.29